createdAt,value
2019-04-21T00:00:29.716Z,893.56
2019-04-21T00:01:31.551Z,893.53
2019-04-21T00:02:34.145Z,893.56
2019-04-21T00:03:37.793Z,893.53
2019-04-21T00:04:42.717Z,893.50
2019-04-21T00:05:52.949Z,893.52
2019-04-21T00:06:48.448Z,893.54
2019-04-21T00:07:50.708Z,893.50
2019-04-21T00:08:54.114Z,893.52
2019-04-21T00:09:54.939Z,893.48
2019-04-21T00:10:51.336Z,893.48
2019-04-21T00:11:47.854Z,893.46
2019-04-21T00:12:47.247Z,893.45
2019-04-21T00:13:43.972Z,893.47
2019-04-21T00:14:39.686Z,893.43
2019-04-21T00:15:36.643Z,893.43
2019-04-21T00:16:34.708Z,893.40
2019-04-21T00:17:30.320Z,893.40
2019-04-21T00:18:39.649Z,893.39
2019-04-21T00:19:33.206Z,893.40
2019-04-21T00:20:37.593Z,893.37
2019-04-21T00:21:36.494Z,893.36
2019-04-21T00:22:41.300Z,893.39
2019-04-21T00:23:41.203Z,893.36
2019-04-21T00:24:41.260Z,893.35
2019-04-21T00:25:43.815Z,893.36
2019-04-21T00:26:48.129Z,893.33
2019-04-21T00:27:44.045Z,893.40
2019-04-21T00:28:49.036Z,893.37
2019-04-21T00:29:50.367Z,893.35
2019-04-21T00:30:50.939Z,893.34
2019-04-21T00:32:41.996Z,893.31
2019-04-21T00:33:33.776Z,893.34
2019-04-21T00:34:30.049Z,893.32
2019-04-21T00:35:30.961Z,893.29
2019-04-21T00:36:40.792Z,893.33
2019-04-21T00:37:49.396Z,893.30
2019-04-21T00:39:03.023Z,893.30
2019-04-21T00:39:55.991Z,893.29
2019-04-21T00:40:53.857Z,893.27
2019-04-21T00:41:48.424Z,893.26
2019-04-21T00:42:43.129Z,893.24
2019-04-21T00:43:44.765Z,893.22
2019-04-21T00:44:40.112Z,893.23
2019-04-21T00:45:43.540Z,893.19
2019-04-21T00:46:44.899Z,893.19
2019-04-21T00:47:45.826Z,893.18
2019-04-21T00:48:47.682Z,893.19
2019-04-21T00:49:52.080Z,893.19
2019-04-21T00:51:03.618Z,893.19
2019-04-21T00:52:07.146Z,893.18
2019-04-21T00:52:58.084Z,893.17
2019-04-21T00:53:59.659Z,893.15
2019-04-21T00:54:58.594Z,893.16
2019-04-21T00:55:52.011Z,893.11
2019-04-21T00:56:56.936Z,893.10
2019-04-21T00:58:08.373Z,893.10
2019-04-21T00:58:53.223Z,893.12
2019-04-21T00:59:51.715Z,893.09
2019-04-21T01:00:51.225Z,893.08
2019-04-21T01:01:49.099Z,893.07
2019-04-21T01:03:14.620Z,893.02
2019-04-21T01:03:53.080Z,893.03
2019-04-21T01:04:49.500Z,893.06
2019-04-21T01:05:51.781Z,893.04
2019-04-21T01:06:48.064Z,893.04
2019-04-21T01:07:46.963Z,893.03
2019-04-21T01:08:45.799Z,893.03
2019-04-21T01:09:46.331Z,893.04
2019-04-21T01:10:39.637Z,893.03
2019-04-21T01:11:51.832Z,893.04
2019-04-21T01:12:48.964Z,893.05
2019-04-21T01:13:51.979Z,893.02
2019-04-21T01:14:55.421Z,892.98
2019-04-21T01:15:54.627Z,892.99
2019-04-21T01:16:55.616Z,892.99
2019-04-21T01:17:53.212Z,893.02
2019-04-21T01:18:49.334Z,893.00
2019-04-21T01:19:47.075Z,893.04
2019-04-21T01:20:28.123Z,893.05
2019-04-21T01:21:28.154Z,892.99
2019-04-21T01:22:28.100Z,892.98
2019-04-21T01:23:29.362Z,893.02
2019-04-21T01:24:33.020Z,893.05
2019-04-21T01:25:35.302Z,893.00
2019-04-21T01:26:40.849Z,893.01
2019-04-21T01:27:52.033Z,892.96
2019-04-21T01:28:46.410Z,892.98
2019-04-21T01:29:49.233Z,892.98
2019-04-21T01:30:44.927Z,892.99
2019-04-21T01:31:41.625Z,892.98
2019-04-21T01:32:49.004Z,893.00
2019-04-21T01:33:51.541Z,892.98
2019-04-21T01:34:45.119Z,892.98
2019-04-21T01:35:48.476Z,893.00
2019-04-21T01:36:45.848Z,892.95
2019-04-21T01:37:52.796Z,892.94
2019-04-21T01:38:59.279Z,892.92
2019-04-21T01:39:53.332Z,892.91
2019-04-21T01:40:52.717Z,892.87
2019-04-21T01:41:50.795Z,892.89
2019-04-21T01:42:48.181Z,892.85
2019-04-21T01:44:50.608Z,892.81
2019-04-21T01:45:49.156Z,892.84
2019-04-21T01:46:45.871Z,892.82
2019-04-21T01:47:49.095Z,892.79
2019-04-21T01:48:45.988Z,892.81
2019-04-21T01:49:37.025Z,892.76
2019-04-21T01:50:47.031Z,892.80
2019-04-21T01:51:59.673Z,892.76
2019-04-21T01:52:54.704Z,892.73
2019-04-21T01:53:48.678Z,892.75
2019-04-21T01:54:53.405Z,892.75
2019-04-21T01:55:49.893Z,892.77
2019-04-21T01:56:44.825Z,892.77
2019-04-21T01:57:42.528Z,892.74
2019-04-21T01:58:41.669Z,892.72
2019-04-21T01:59:43.895Z,892.75
2019-04-21T02:00:46.957Z,892.73
2019-04-21T02:01:49.275Z,892.68
2019-04-21T02:02:54.599Z,892.69
2019-04-21T02:04:47.355Z,892.63
2019-04-21T02:05:52.591Z,892.66
2019-04-21T02:06:55.364Z,892.65
2019-04-21T02:07:50.531Z,892.65
2019-04-21T02:08:43.431Z,892.62
2019-04-21T02:09:51.034Z,892.57
2019-04-21T02:10:56.068Z,892.59
2019-04-21T02:11:50.457Z,892.55
2019-04-21T02:12:52.283Z,892.57
2019-04-21T02:13:53.130Z,892.54
2019-04-21T02:15:01.103Z,892.59
2019-04-21T02:15:48.812Z,892.55
2019-04-21T02:16:49.663Z,892.55
2019-04-21T02:17:49.707Z,892.61
2019-04-21T02:18:43.734Z,892.59
2019-04-21T02:19:41.046Z,892.61
2019-04-21T02:20:38.736Z,892.59
2019-04-21T02:21:41.034Z,892.60
2019-04-21T02:23:06.143Z,892.59
2019-04-21T02:23:54.554Z,892.62
2019-04-21T02:25:10.855Z,892.62
2019-04-21T02:25:50.831Z,892.59
2019-04-21T02:26:51.035Z,892.61
2019-04-21T02:27:50.227Z,892.58
2019-04-21T02:28:55.288Z,892.56
2019-04-21T02:29:47.177Z,892.57
2019-04-21T02:31:04.936Z,892.57
2019-04-21T02:32:04.275Z,892.56
2019-04-21T02:32:58.761Z,892.56
2019-04-21T02:34:02.728Z,892.55
2019-04-21T02:34:59.927Z,892.57
2019-04-21T02:37:17.213Z,892.51
2019-04-21T02:40:59.547Z,892.50
2019-04-21T02:44:04.186Z,892.47
2019-04-21T02:46:06.400Z,892.45
2019-04-21T02:46:50.373Z,892.43
2019-04-21T02:49:11.221Z,892.41
2019-04-21T02:50:50.049Z,892.42
2019-04-21T02:52:01.572Z,892.37
2019-04-21T02:54:53.967Z,892.37
2019-04-21T02:59:02.946Z,892.37
2019-04-21T03:00:06.491Z,892.34
2019-04-21T03:00:58.186Z,892.32
2019-04-21T03:02:04.203Z,892.31
2019-04-21T03:03:00.985Z,892.31
2019-04-21T03:04:00.074Z,892.24
2019-04-21T03:06:02.660Z,892.23
2019-04-21T03:07:07.266Z,892.22
2019-04-21T03:09:03.192Z,892.18
2019-04-21T03:09:49.512Z,892.17
2019-04-21T03:10:59.287Z,892.17
2019-04-21T03:12:05.542Z,892.11
2019-04-21T03:13:03.540Z,892.13
2019-04-21T03:15:29.609Z,892.09
2019-04-21T03:16:55.643Z,892.08
2019-04-21T03:18:10.804Z,892.06
2019-04-21T03:18:56.762Z,892.07
2019-04-21T03:21:57.578Z,892.07
2019-04-21T03:22:59.922Z,892.08
2019-04-21T03:26:00.888Z,892.05
2019-04-21T03:27:10.404Z,892.03
2019-04-21T03:29:05.653Z,892.03
2019-04-21T03:29:59.279Z,892.07
2019-04-21T03:31:19.271Z,892.05
2019-04-21T03:32:14.302Z,892.11
2019-04-21T03:33:29.789Z,892.10
2019-04-21T03:35:15.900Z,892.07
2019-04-21T03:37:16.616Z,892.03
2019-04-21T03:38:18.859Z,892.03
2019-04-21T03:38:57.132Z,892.05
2019-04-21T03:40:57.695Z,892.04
2019-04-21T03:42:11.376Z,892.05
2019-04-21T03:42:59.915Z,892.02
2019-04-21T03:43:59.276Z,892.06
2019-04-21T03:44:55.235Z,892.09
2019-04-21T03:45:49.181Z,892.08
2019-04-21T03:47:04.397Z,891.98
2019-04-21T03:47:54.347Z,892.03
2019-04-21T03:49:04.860Z,892.04
2019-04-21T03:50:08.854Z,892.03
2019-04-21T03:50:58.935Z,891.99
2019-04-21T03:52:03.801Z,892.01
2019-04-21T03:53:02.749Z,892.10
2019-04-21T03:53:55.748Z,892.03
2019-04-21T03:55:12.418Z,892.03
2019-04-21T03:57:11.410Z,892.06
2019-04-21T03:58:59.844Z,892.02
2019-04-21T04:00:16.109Z,892.01
2019-04-21T04:02:01.889Z,892.00
2019-04-21T04:03:07.654Z,892.00
2019-04-21T04:04:07.020Z,891.97
2019-04-21T04:07:06.026Z,891.93
2019-04-21T04:08:02.230Z,891.90
2019-04-21T04:10:02.873Z,891.89
2019-04-21T04:11:04.664Z,891.87
2019-04-21T04:12:57.742Z,891.86
2019-04-21T04:14:50.273Z,891.82
2019-04-21T04:15:56.597Z,891.85
2019-04-21T04:17:04.684Z,891.88
2019-04-21T04:17:54.363Z,891.84
2019-04-21T04:19:00.516Z,891.82
2019-04-21T04:20:11.802Z,891.83
2019-04-21T04:21:10.215Z,891.84
2019-04-21T04:23:03.741Z,891.82
2019-04-21T04:25:15.602Z,891.84
2019-04-21T04:25:59.157Z,891.82
2019-04-21T04:26:57.044Z,891.79
2019-04-21T04:29:17.942Z,891.83
2019-04-21T04:30:01.119Z,891.77
2019-04-21T04:30:52.193Z,891.83
2019-04-21T04:31:53.164Z,891.83
2019-04-21T04:32:46.791Z,891.83
2019-04-21T04:36:08.352Z,891.83
2019-04-21T04:37:57.727Z,891.85
2019-04-21T04:39:02.323Z,891.86
2019-04-21T04:40:00.796Z,891.85
2019-04-21T04:40:56.047Z,891.81
2019-04-21T04:42:56.907Z,891.80
2019-04-21T04:45:04.399Z,891.83
2019-04-21T04:45:58.843Z,891.81
2019-04-21T04:48:01.980Z,891.85
2019-04-21T04:49:51.561Z,891.88
2019-04-21T04:52:09.106Z,891.89
2019-04-21T04:52:57.030Z,891.89
2019-04-21T04:55:01.745Z,891.85
2019-04-21T04:56:00.922Z,891.90
2019-04-21T04:56:56.330Z,891.91
2019-04-21T04:58:04.686Z,891.83
2019-04-21T05:00:02.761Z,891.85
2019-04-21T05:01:08.951Z,891.83
2019-04-21T05:02:01.543Z,891.81
2019-04-21T05:05:15.683Z,891.79
2019-04-21T05:06:06.576Z,891.80
2019-04-21T05:06:59.983Z,891.75
2019-04-21T05:07:57.284Z,891.77
2019-04-21T05:09:52.208Z,891.84
2019-04-21T05:11:07.782Z,891.84
2019-04-21T05:11:55.970Z,891.87
2019-04-21T05:12:51.832Z,891.84
2019-04-21T05:14:54.738Z,891.83
2019-04-21T05:15:50.512Z,891.84
2019-04-21T05:17:51.005Z,891.82
2019-04-21T05:19:06.519Z,891.75
2019-04-21T05:21:09.039Z,891.80
2019-04-21T05:21:45.334Z,891.81
2019-04-21T05:22:50.376Z,891.86
2019-04-21T05:23:43.041Z,891.86
2019-04-21T05:24:44.192Z,891.85
2019-04-21T05:25:41.502Z,891.82
2019-04-21T05:26:43.331Z,891.83
2019-04-21T05:27:40.979Z,891.84
2019-04-21T05:28:36.992Z,891.86
2019-04-21T05:29:55.664Z,891.84
2019-04-21T05:30:48.971Z,891.84
2019-04-21T05:31:50.928Z,891.83
2019-04-21T05:32:45.090Z,891.81
2019-04-21T05:33:44.886Z,891.81
2019-04-21T05:34:43.056Z,891.85
2019-04-21T05:35:45.065Z,891.83
2019-04-21T05:36:44.325Z,891.77
2019-04-21T05:37:43.292Z,891.79
2019-04-21T05:38:41.777Z,891.82
2019-04-21T05:39:37.586Z,891.80
2019-04-21T05:40:38.911Z,891.79
2019-04-21T05:41:34.881Z,891.82
2019-04-21T05:42:44.425Z,891.80
2019-04-21T05:43:50.348Z,891.80
2019-04-21T05:44:58.815Z,891.84
2019-04-21T05:45:47.387Z,891.84
2019-04-21T05:46:53.547Z,891.82
2019-04-21T05:47:47.384Z,891.80
2019-04-21T05:48:50.312Z,891.77
2019-04-21T05:49:45.242Z,891.77
2019-04-21T05:50:46.141Z,891.79
2019-04-21T05:51:41.041Z,891.75
2019-04-21T05:52:41.840Z,891.75
2019-04-21T05:53:50.547Z,891.78
2019-04-21T05:54:49.886Z,891.77
2019-04-21T05:55:51.829Z,891.79
2019-04-21T05:56:49.831Z,891.79
2019-04-21T05:57:46.621Z,891.78
2019-04-21T05:58:43.781Z,891.77
2019-04-21T05:59:43.692Z,891.75
2019-04-21T06:01:06.107Z,891.77
2019-04-21T06:01:50.331Z,891.74
2019-04-21T06:02:56.021Z,891.77
2019-04-21T06:03:52.762Z,891.71
2019-04-21T06:06:08.587Z,891.74
2019-04-21T06:06:48.080Z,891.71
2019-04-21T06:07:47.215Z,891.77
2019-04-21T06:08:42.616Z,891.77
2019-04-21T06:09:51.328Z,891.74
2019-04-21T06:10:55.615Z,891.74
2019-04-21T06:11:42.405Z,891.78
2019-04-21T06:12:57.718Z,891.76
2019-04-21T06:14:52.138Z,891.76
2019-04-21T06:15:50.303Z,891.73
2019-04-21T06:16:53.934Z,891.74
2019-04-21T06:17:54.378Z,891.73
2019-04-21T06:19:52.738Z,891.73
2019-04-21T06:20:46.651Z,891.74
2019-04-21T06:21:45.180Z,891.76
2019-04-21T06:22:51.624Z,891.74
2019-04-21T06:23:45.010Z,891.71
2019-04-21T06:25:16.234Z,891.72
2019-04-21T06:27:45.900Z,891.72
2019-04-21T06:28:50.519Z,891.72
2019-04-21T06:29:49.279Z,891.71
2019-04-21T06:31:05.508Z,891.70
2019-04-21T06:32:50.588Z,891.66
2019-04-21T06:35:07.197Z,891.62
2019-04-21T06:35:59.800Z,891.64
2019-04-21T06:36:47.078Z,891.65
2019-04-21T06:37:50.827Z,891.62
2019-04-21T06:38:59.683Z,891.59
2019-04-21T06:40:01.620Z,891.60
2019-04-21T06:40:48.162Z,891.59
2019-04-21T06:41:45.459Z,891.61
2019-04-21T06:42:50.262Z,891.61
2019-04-21T06:44:54.072Z,891.58
2019-04-21T06:46:02.249Z,891.60
2019-04-21T06:46:47.122Z,891.60
2019-04-21T06:47:53.972Z,891.58
2019-04-21T06:48:53.828Z,891.57
2019-04-21T06:49:44.269Z,891.57
2019-04-21T06:50:52.505Z,891.54
2019-04-21T06:51:44.826Z,891.53
2019-04-21T06:53:54.317Z,891.53
2019-04-21T06:54:53.304Z,891.52
2019-04-21T06:55:44.065Z,891.55
2019-04-21T06:56:45.037Z,891.54
2019-04-21T06:57:50.463Z,891.49
2019-04-21T06:58:45.855Z,891.52
2019-04-21T06:59:43.559Z,891.48
2019-04-21T07:00:43.230Z,891.53
2019-04-21T07:01:52.446Z,891.47
2019-04-21T07:03:00.027Z,891.48
2019-04-21T07:03:49.301Z,891.48
2019-04-21T07:04:50.243Z,891.48
2019-04-21T07:05:50.479Z,891.46
2019-04-21T07:06:50.031Z,891.43
2019-04-21T07:07:55.218Z,891.42
2019-04-21T07:08:55.114Z,891.38
2019-04-21T07:10:09.006Z,891.44
2019-04-21T07:10:46.423Z,891.41
2019-04-21T07:11:42.184Z,891.40
2019-04-21T07:12:49.690Z,891.36
2019-04-21T07:13:50.985Z,891.33
2019-04-21T07:14:42.327Z,891.33
2019-04-21T07:15:43.444Z,891.35
2019-04-21T07:16:53.170Z,891.30
2019-04-21T07:17:45.720Z,891.27
2019-04-21T07:18:53.794Z,891.29
2019-04-21T07:19:52.408Z,891.32
2019-04-21T07:20:50.550Z,891.29
2019-04-21T07:21:47.607Z,891.28
2019-04-21T07:22:51.200Z,891.29
2019-04-21T07:23:47.482Z,891.27
2019-04-21T07:24:43.357Z,891.25
2019-04-21T07:25:45.571Z,891.27
2019-04-21T07:26:44.488Z,891.24
2019-04-21T07:27:46.675Z,891.21
2019-04-21T07:28:49.726Z,891.22
2019-04-21T07:29:50.586Z,891.20
2019-04-21T07:30:43.976Z,891.20
2019-04-21T07:31:56.645Z,891.20
2019-04-21T07:32:49.707Z,891.20
2019-04-21T07:33:54.023Z,891.18
2019-04-21T07:34:44.831Z,891.16
2019-04-21T07:35:43.173Z,891.13
2019-04-21T07:36:52.155Z,891.11
2019-04-21T07:37:49.362Z,891.12
2019-04-21T07:38:39.867Z,891.11
2019-04-21T07:39:46.608Z,891.16
2019-04-21T07:40:38.940Z,891.08
2019-04-21T07:41:42.455Z,891.10
2019-04-21T07:42:39.995Z,891.10
2019-04-21T07:43:38.016Z,891.08
2019-04-21T07:44:44.658Z,891.06
2019-04-21T07:45:40.785Z,891.07
2019-04-21T07:46:37.259Z,891.02
2019-04-21T07:47:44.610Z,891.08
2019-04-21T07:48:46.115Z,891.08
2019-04-21T07:49:50.222Z,891.00
2019-04-21T07:50:47.426Z,891.07
2019-04-21T07:51:48.004Z,891.03
2019-04-21T07:52:49.100Z,891.05
2019-04-21T07:53:50.988Z,891.01
2019-04-21T07:54:44.524Z,891.04
2019-04-21T07:56:30.852Z,891.02
2019-04-21T07:57:37.622Z,891.01
2019-04-21T07:58:51.049Z,891.00
2019-04-21T07:59:57.850Z,890.99
2019-04-21T08:01:44.128Z,890.97
2019-04-21T08:02:49.609Z,890.99
2019-04-21T08:03:47.443Z,891.01
2019-04-21T08:04:52.718Z,890.96
2019-04-21T08:05:46.105Z,890.95
2019-04-21T08:06:47.735Z,890.91
2019-04-21T08:07:54.295Z,890.91
2019-04-21T08:08:42.214Z,890.93
2019-04-21T08:09:42.573Z,890.93
2019-04-21T08:10:38.024Z,890.94
2019-04-21T08:11:38.649Z,890.94
2019-04-21T08:12:36.239Z,890.93
2019-04-21T08:14:43.659Z,890.94
2019-04-21T08:15:49.420Z,890.94
2019-04-21T08:16:49.865Z,890.95
2019-04-21T08:17:41.484Z,890.97
2019-04-21T08:18:47.220Z,890.91
2019-04-21T08:19:43.347Z,890.94
2019-04-21T08:20:41.849Z,890.92
2019-04-21T08:21:40.506Z,890.92
2019-04-21T08:22:46.822Z,890.93
2019-04-21T08:23:44.858Z,890.91
2019-04-21T08:24:42.133Z,890.94
2019-04-21T08:25:53.091Z,890.96
2019-04-21T08:26:45.045Z,890.94
2019-04-21T08:27:49.535Z,890.98
2019-04-21T08:28:47.501Z,891.00
2019-04-21T08:29:46.432Z,891.00
2019-04-21T08:30:43.044Z,890.98
2019-04-21T08:32:02.855Z,890.98
2019-04-21T08:32:54.043Z,890.98
2019-04-21T08:33:46.495Z,890.93
2019-04-21T08:34:44.112Z,890.92
2019-04-21T08:36:09.794Z,890.93
2019-04-21T08:36:40.291Z,890.92
2019-04-21T08:37:43.276Z,890.93
2019-04-21T08:38:42.370Z,890.89
2019-04-21T08:39:49.534Z,890.90
2019-04-21T08:40:42.422Z,890.92
2019-04-21T08:41:44.029Z,890.92
2019-04-21T08:42:38.256Z,890.91
2019-04-21T08:44:46.799Z,890.93
2019-04-21T08:45:41.511Z,890.94
2019-04-21T08:46:49.216Z,890.91
2019-04-21T08:48:43.889Z,890.93
2019-04-21T08:49:41.297Z,890.91
2019-04-21T08:50:47.527Z,890.93
2019-04-21T08:52:00.705Z,890.86
2019-04-21T08:53:49.105Z,890.85
2019-04-21T08:54:43.088Z,890.83
2019-04-21T08:55:48.910Z,890.84
2019-04-21T08:56:41.331Z,890.83
2019-04-21T08:57:50.681Z,890.84
2019-04-21T08:58:43.087Z,890.83
2019-04-21T08:59:43.590Z,890.83
2019-04-21T09:00:51.382Z,890.82
2019-04-21T09:01:43.069Z,890.80
2019-04-21T09:02:41.807Z,890.76
2019-04-21T09:03:44.617Z,890.77
2019-04-21T09:04:41.001Z,890.77
2019-04-21T09:05:44.807Z,890.73
2019-04-21T09:06:54.102Z,890.74
2019-04-21T09:07:49.538Z,890.76
2019-04-21T09:08:44.385Z,890.75
2019-04-21T09:09:41.585Z,890.72
2019-04-21T09:10:40.949Z,890.71
2019-04-21T09:11:40.406Z,890.71
2019-04-21T09:12:44.861Z,890.69
2019-04-21T09:13:41.117Z,890.72
2019-04-21T09:14:41.929Z,890.66
2019-04-21T09:15:41.603Z,890.68
2019-04-21T09:16:35.426Z,890.63
2019-04-21T09:17:33.004Z,890.62
2019-04-21T09:18:38.097Z,890.62
2019-04-21T09:19:51.056Z,890.60
2019-04-21T09:20:47.131Z,890.61
2019-04-21T09:21:45.549Z,890.58
2019-04-21T09:22:43.744Z,890.59
2019-04-21T09:23:40.742Z,890.59
2019-04-21T09:24:43.022Z,890.51
2019-04-21T09:26:35.628Z,890.52
2019-04-21T09:27:36.735Z,890.51
2019-04-21T09:28:37.032Z,890.48
2019-04-21T09:29:30.995Z,890.46
2019-04-21T09:30:22.103Z,890.42
2019-04-21T09:31:25.966Z,890.42
2019-04-21T09:32:26.777Z,890.41
2019-04-21T09:33:28.059Z,890.39
2019-04-21T09:34:29.821Z,890.37
2019-04-21T09:35:22.708Z,890.35
2019-04-21T09:36:24.030Z,890.37
2019-04-21T09:37:32.953Z,890.39
2019-04-21T09:38:29.968Z,890.38
2019-04-21T09:39:25.563Z,890.35
2019-04-21T09:40:30.862Z,890.38
2019-04-21T09:41:24.266Z,890.35
2019-04-21T09:42:30.985Z,890.33
2019-04-21T09:43:32.936Z,890.34
2019-04-21T09:44:27.574Z,890.30
2019-04-21T09:45:22.932Z,890.37
2019-04-21T09:46:23.130Z,890.31
2019-04-21T09:47:24.908Z,890.29
2019-04-21T09:48:24.030Z,890.30
2019-04-21T09:49:25.939Z,890.22
2019-04-21T09:50:22.259Z,890.26
2019-04-21T09:51:21.902Z,890.27
2019-04-21T09:52:26.626Z,890.20
2019-04-21T09:53:29.197Z,890.19
2019-04-21T09:54:27.799Z,890.20
2019-04-21T09:55:26.159Z,890.15
2019-04-21T09:56:31.476Z,890.17
2019-04-21T09:57:31.375Z,890.14
2019-04-21T09:58:29.286Z,890.11
2019-04-21T09:59:28.445Z,890.15
2019-04-21T10:00:25.260Z,890.11
2019-04-21T10:01:29.883Z,890.11
2019-04-21T10:02:35.257Z,890.06
2019-04-21T10:03:23.028Z,890.11
2019-04-21T10:04:23.085Z,890.06
2019-04-21T10:05:21.774Z,890.02
2019-04-21T10:06:21.768Z,889.92
2019-04-21T10:07:28.090Z,889.93
2019-04-21T10:08:22.823Z,889.96
2019-04-21T10:09:21.924Z,889.91
2019-04-21T10:10:22.952Z,889.94
2019-04-21T10:11:22.637Z,889.89
2019-04-21T10:12:21.707Z,889.87
2019-04-21T10:13:22.976Z,889.85
2019-04-21T10:14:22.021Z,889.85
2019-04-21T10:15:23.638Z,889.85
2019-04-21T10:16:21.939Z,889.86
2019-04-21T10:17:21.817Z,889.85
2019-04-21T10:18:21.782Z,889.86
2019-04-21T10:19:21.644Z,889.86
2019-04-21T10:20:22.355Z,889.82
2019-04-21T10:21:22.537Z,889.82
2019-04-21T10:22:23.104Z,889.81
2019-04-21T10:23:21.610Z,889.82
2019-04-21T10:24:22.202Z,889.78
2019-04-21T10:25:22.695Z,889.78
2019-04-21T10:26:22.206Z,889.77
2019-04-21T10:27:21.587Z,889.74
2019-04-21T10:28:21.573Z,889.76
2019-04-21T10:29:25.517Z,889.70
2019-04-21T10:30:22.527Z,889.69
2019-04-21T10:31:22.706Z,889.70
2019-04-21T10:32:23.696Z,889.67
2019-04-21T10:33:22.030Z,889.64
2019-04-21T10:34:21.551Z,889.59
2019-04-21T10:35:23.027Z,889.60
2019-04-21T10:36:22.735Z,889.59
2019-04-21T10:37:32.810Z,889.56
2019-04-21T10:38:30.210Z,889.57
2019-04-21T10:39:21.791Z,889.56
2019-04-21T10:40:21.471Z,889.54
2019-04-21T10:41:21.637Z,889.57
2019-04-21T10:42:21.541Z,889.55
2019-04-21T10:43:22.622Z,889.50
2019-04-21T10:44:21.444Z,889.53
2019-04-21T10:45:21.434Z,889.51
2019-04-21T10:46:22.463Z,889.55
2019-04-21T10:47:22.702Z,889.49
2019-04-21T10:48:21.401Z,889.45
2019-04-21T10:49:22.576Z,889.45
2019-04-21T10:50:22.508Z,889.43
2019-04-21T10:51:21.394Z,889.46
2019-04-21T10:52:22.742Z,889.41
2019-04-21T10:53:22.642Z,889.39
2019-04-21T10:54:21.869Z,889.39
2019-04-21T10:55:40.217Z,889.36
2019-04-21T10:56:29.037Z,889.36
2019-04-21T10:57:22.255Z,889.34
2019-04-21T10:58:22.484Z,889.31
2019-04-21T10:59:22.388Z,889.31
2019-04-21T11:00:21.743Z,889.31
2019-04-21T11:01:21.309Z,889.31
2019-04-21T11:02:21.301Z,889.26
2019-04-21T11:03:22.659Z,889.30
2019-04-21T11:04:27.254Z,889.27
2019-04-21T11:05:22.673Z,889.29
2019-04-21T11:06:21.277Z,889.32
2019-04-21T11:07:24.312Z,889.26
2019-04-21T11:08:28.388Z,889.24
2019-04-21T11:09:22.032Z,889.22
2019-04-21T11:10:22.298Z,889.21
2019-04-21T11:11:21.756Z,889.24
2019-04-21T11:12:21.758Z,889.21
2019-04-21T11:13:21.225Z,889.27
2019-04-21T11:14:21.212Z,889.24
2019-04-21T11:15:21.268Z,889.23
2019-04-21T11:16:21.376Z,889.17
2019-04-21T11:17:21.840Z,889.28
2019-04-21T11:18:21.937Z,889.24
2019-04-21T11:19:22.154Z,889.25
2019-04-21T11:20:22.589Z,889.20
2019-04-21T11:21:21.156Z,889.22
2019-04-21T11:22:21.152Z,889.20
2019-04-21T11:23:22.386Z,889.19
2019-04-21T11:24:21.134Z,889.13
2019-04-21T11:25:22.030Z,889.19
2019-04-21T11:26:22.067Z,889.20
2019-04-21T11:27:22.540Z,889.16
2019-04-21T11:28:21.107Z,889.14
2019-04-21T11:29:21.284Z,889.08
2019-04-21T11:30:21.093Z,889.06
2019-04-21T11:31:21.085Z,889.09
2019-04-21T11:32:21.233Z,889.11
2019-04-21T11:33:21.346Z,889.09
2019-04-21T11:34:21.187Z,889.05
2019-04-21T11:35:21.277Z,889.03
2019-04-21T11:36:21.635Z,889.05
2019-04-21T11:37:21.975Z,889.02
2019-04-21T11:38:24.907Z,889.07
2019-04-21T11:39:31.600Z,889.07
2019-04-21T11:40:22.134Z,889.01
2019-04-21T11:41:21.639Z,889.01
2019-04-21T11:42:21.744Z,889.04
2019-04-21T11:43:22.031Z,888.98
2019-04-21T11:44:23.139Z,889.01
2019-04-21T11:45:22.110Z,889.00
2019-04-21T11:46:22.405Z,888.99
2019-04-21T11:47:20.973Z,888.97
2019-04-21T11:48:21.934Z,888.96
2019-04-21T11:49:22.250Z,888.95
2019-04-21T11:50:21.152Z,888.96
2019-04-21T11:51:20.946Z,889.00
2019-04-21T11:52:20.938Z,889.03
2019-04-21T11:53:21.041Z,888.99
2019-04-21T11:54:20.933Z,888.95
2019-04-21T11:55:20.919Z,889.01
2019-04-21T11:56:20.949Z,888.98
2019-04-21T11:57:26.461Z,888.95
2019-04-21T11:58:21.469Z,888.93
2019-04-21T11:59:21.794Z,888.95
2019-04-21T12:00:21.776Z,888.93
2019-04-21T12:01:21.340Z,888.97
2019-04-21T12:02:21.548Z,888.97
2019-04-21T12:03:22.161Z,888.91
2019-04-21T12:04:21.278Z,888.89
2019-04-21T12:05:21.393Z,888.92
2019-04-21T12:06:28.978Z,888.89
2019-04-21T12:07:20.826Z,888.90
2019-04-21T12:08:29.983Z,888.85
2019-04-21T12:09:21.072Z,888.81
2019-04-21T12:10:21.622Z,888.81
2019-04-21T12:11:21.069Z,888.83
2019-04-21T12:12:21.343Z,888.85
2019-04-21T12:13:20.790Z,888.83
2019-04-21T12:14:21.755Z,888.76
2019-04-21T12:15:20.866Z,888.81
2019-04-21T12:16:21.119Z,888.84
2019-04-21T12:17:20.767Z,888.76
2019-04-21T12:18:22.243Z,888.77
2019-04-21T12:19:20.828Z,888.74
2019-04-21T12:20:20.943Z,888.75
2019-04-21T12:21:21.159Z,888.78
2019-04-21T12:22:25.355Z,888.70
2019-04-21T12:23:20.720Z,888.71
2019-04-21T12:24:21.522Z,888.61
2019-04-21T12:25:21.024Z,888.62
2019-04-21T12:26:22.037Z,888.67
2019-04-21T12:27:22.178Z,888.69
2019-04-21T12:28:21.896Z,888.64
2019-04-21T12:29:20.859Z,888.67
2019-04-21T12:30:21.846Z,888.60
2019-04-21T12:31:21.183Z,888.65
2019-04-21T12:32:22.115Z,888.62
2019-04-21T12:33:20.665Z,888.64
2019-04-21T12:34:21.882Z,888.60
2019-04-21T12:35:21.755Z,888.60
2019-04-21T12:36:21.912Z,888.61
2019-04-21T12:37:20.632Z,888.58
2019-04-21T12:38:32.085Z,888.61
2019-04-21T12:39:20.891Z,888.60
2019-04-21T12:40:20.960Z,888.56
2019-04-21T12:41:20.615Z,888.59
2019-04-21T12:42:20.829Z,888.53
2019-04-21T12:43:21.006Z,888.52
2019-04-21T12:44:20.595Z,888.49
2019-04-21T12:45:21.997Z,888.45
2019-04-21T12:46:20.577Z,888.49
2019-04-21T12:47:21.761Z,888.45
2019-04-21T12:48:21.927Z,888.43
2019-04-21T12:49:20.561Z,888.43
2019-04-21T12:50:21.498Z,888.38
2019-04-21T12:51:21.896Z,888.36
2019-04-21T12:52:21.767Z,888.38
2019-04-21T12:53:21.413Z,888.35
2019-04-21T12:54:21.654Z,888.38
2019-04-21T12:55:23.967Z,888.33
2019-04-21T12:56:20.520Z,888.32
2019-04-21T12:57:21.414Z,888.35
2019-04-21T12:58:21.513Z,888.30
2019-04-21T12:59:21.200Z,888.37
2019-04-21T13:00:20.846Z,888.35
2019-04-21T13:01:20.991Z,888.38
2019-04-21T13:02:20.486Z,888.34
2019-04-21T13:03:23.308Z,888.36
2019-04-21T13:04:21.759Z,888.32
2019-04-21T13:05:21.855Z,888.35
2019-04-21T13:06:21.414Z,888.35
2019-04-21T13:07:21.573Z,888.28
2019-04-21T13:08:21.651Z,888.33
2019-04-21T13:09:20.562Z,888.32
2019-04-21T13:10:20.435Z,888.27
2019-04-21T13:11:21.386Z,888.31
2019-04-21T13:12:20.424Z,888.30
2019-04-21T13:13:21.870Z,888.28
2019-04-21T13:14:20.408Z,888.28
2019-04-21T13:15:21.772Z,888.26
2019-04-21T13:16:21.197Z,888.33
2019-04-21T13:17:21.463Z,888.32
2019-04-21T13:18:20.636Z,888.29
2019-04-21T13:19:21.061Z,888.29
2019-04-21T13:20:21.134Z,888.21
2019-04-21T13:21:20.363Z,888.24
2019-04-21T13:22:21.644Z,888.26
2019-04-21T13:23:20.911Z,888.26
2019-04-21T13:24:20.348Z,888.24
2019-04-21T13:25:20.337Z,888.30
2019-04-21T13:26:29.608Z,888.22
2019-04-21T13:27:20.623Z,888.16
2019-04-21T13:28:20.785Z,888.15
2019-04-21T13:29:20.555Z,888.11
2019-04-21T13:30:20.309Z,888.09
2019-04-21T13:31:20.303Z,888.14
2019-04-21T13:32:20.508Z,888.11
2019-04-21T13:33:20.984Z,888.02
2019-04-21T13:34:20.284Z,888.02
2019-04-21T13:35:21.214Z,887.96
2019-04-21T13:36:21.351Z,887.98
2019-04-21T13:37:21.465Z,888.08
2019-04-21T13:38:32.620Z,888.00
2019-04-21T13:39:57.042Z,888.01
2019-04-21T13:40:34.435Z,888.01